createdAt,value
2023-03-05T00:00:16.130Z,0.06
2023-03-05T00:02:46.292Z,0.05
2023-03-05T00:05:13.443Z,0.01
2023-03-05T00:07:40.526Z,0.00
2023-03-05T00:10:08.514Z,-0.03
2023-03-05T00:12:35.600Z,-0.07
2023-03-05T00:15:02.813Z,-0.03
2023-03-05T00:17:30.366Z,0.10
2023-03-05T00:20:00.855Z,0.02
2023-03-05T00:22:29.284Z,0.04
2023-03-05T00:24:56.338Z,-0.01
2023-03-05T00:27:23.469Z,-0.04
2023-03-05T00:29:50.547Z,-0.11
2023-03-05T00:32:17.566Z,-0.04
2023-03-05T00:34:44.871Z,-0.14
2023-03-05T00:37:12.002Z,-0.13
2023-03-05T00:39:39.065Z,-0.15
2023-03-05T00:42:06.500Z,-0.12
2023-03-05T00:44:33.549Z,-0.16
2023-03-05T00:47:00.568Z,-0.13
2023-03-05T00:49:27.662Z,-0.13
2023-03-05T00:51:54.684Z,-0.15
2023-03-05T00:54:22.142Z,-0.21
2023-03-05T00:56:49.322Z,-0.22
2023-03-05T00:59:16.442Z,-0.36
2023-03-05T01:04:47.523Z,-0.19
2023-03-05T01:07:14.857Z,-0.30
2023-03-05T01:10:13.450Z,-0.18
2023-03-05T01:12:40.497Z,-0.22
2023-03-05T01:15:39.470Z,-0.22
2023-03-05T01:38:52.903Z,-0.31
2023-03-05T01:44:24.895Z,-0.40
2023-03-05T01:46:52.197Z,-0.40
2023-03-05T01:49:27.878Z,-0.38
2023-03-05T01:52:19.708Z,-0.39
2023-03-05T01:54:49.382Z,-0.39
2023-03-05T01:57:28.117Z,-0.41
2023-03-05T02:00:14.685Z,-0.52
2023-03-05T02:02:44.412Z,-0.48
2023-03-05T02:05:31.843Z,-0.48
2023-03-05T02:08:01.635Z,-0.54
2023-03-05T02:10:37.526Z,-0.42
2023-03-05T02:13:10.860Z,-0.51
2023-03-05T02:15:39.291Z,-0.54
2023-03-05T02:18:08.054Z,-0.55
2023-03-05T02:20:56.054Z,-0.60
2023-03-05T02:23:27.031Z,-0.61
2023-03-05T02:25:54.330Z,-0.56
2023-03-05T02:28:52.089Z,-0.65
2023-03-05T02:31:25.723Z,-0.61
2023-03-05T02:33:54.282Z,-0.63
2023-03-05T02:36:22.034Z,-0.63
2023-03-05T02:38:49.199Z,-0.71
2023-03-05T02:41:18.193Z,-0.70
2023-03-05T02:43:45.398Z,-0.66
2023-03-05T02:46:12.652Z,-0.65
2023-03-05T02:48:40.089Z,-0.73
2023-03-05T02:51:08.203Z,-0.69
2023-03-05T02:53:36.073Z,-0.68
2023-03-05T02:56:04.451Z,-0.66
2023-03-05T02:58:31.731Z,-0.67
2023-03-05T03:00:59.000Z,-0.68
2023-03-05T03:03:26.353Z,-0.70
2023-03-05T03:05:53.551Z,-0.70
2023-03-05T03:08:20.608Z,-0.83
2023-03-05T03:10:47.663Z,-0.69
2023-03-05T03:13:14.693Z,-0.74
2023-03-05T03:15:41.741Z,-0.71
2023-03-05T03:18:08.888Z,-0.80
2023-03-05T03:20:39.222Z,-0.83
2023-03-05T03:23:07.293Z,-0.85
2023-03-05T03:25:34.874Z,-0.82
2023-03-05T03:28:01.986Z,-0.80
2023-03-05T03:30:29.031Z,-0.79
2023-03-05T03:32:56.169Z,-0.78
2023-03-05T03:35:23.282Z,-0.85
2023-03-05T03:37:50.347Z,-0.86
2023-03-05T03:43:12.371Z,-0.76
2023-03-05T03:45:44.324Z,-0.84
2023-03-05T03:56:56.404Z,-0.84
2023-03-05T04:05:45.541Z,-0.84
2023-03-05T04:08:12.733Z,-0.84
2023-03-05T04:19:23.831Z,-0.89
2023-03-05T04:21:50.892Z,-0.83
2023-03-05T04:24:18.052Z,-0.89
2023-03-05T04:26:45.147Z,-0.83
2023-03-05T04:32:08.501Z,-0.84
2023-03-05T04:34:38.088Z,-0.81
2023-03-05T04:37:05.184Z,-0.82
2023-03-05T04:39:32.332Z,-0.89
2023-03-05T04:41:59.357Z,-0.86
2023-03-05T04:44:26.513Z,-0.84
2023-03-05T04:46:53.597Z,-0.81
2023-03-05T04:49:20.652Z,-0.77
2023-03-05T04:51:47.827Z,-0.84
2023-03-05T04:54:15.144Z,-0.77
2023-03-05T04:56:42.315Z,-0.77
2023-03-05T04:59:09.397Z,-0.74
2023-03-05T05:01:37.350Z,-0.79
2023-03-05T05:04:04.508Z,-0.78
2023-03-05T05:06:31.569Z,-0.78
2023-03-05T05:08:58.729Z,-0.72
2023-03-05T05:11:25.821Z,-0.69
2023-03-05T05:13:52.903Z,-0.83
2023-03-05T05:16:20.266Z,-0.67
2023-03-05T05:18:47.413Z,-0.70
2023-03-05T05:21:15.769Z,-0.64
2023-03-05T05:23:42.858Z,-0.62
2023-03-05T05:26:14.836Z,-0.58
2023-03-05T05:28:44.068Z,-0.51
2023-03-05T05:31:15.578Z,-0.46
2023-03-05T05:33:43.622Z,-0.44
2023-03-05T05:36:15.121Z,-0.36
2023-03-05T05:38:42.680Z,-0.32
2023-03-05T05:41:13.570Z,1.04
2023-03-05T05:43:41.395Z,2.81
2023-03-05T05:46:18.395Z,4.81
2023-03-05T05:48:46.285Z,4.42
2023-03-05T05:51:17.620Z,5.37
2023-03-05T05:59:34.464Z,5.10
2023-03-05T06:02:02.585Z,4.09
2023-03-05T06:04:29.754Z,3.53
2023-03-05T06:06:57.026Z,3.28
2023-03-05T06:09:24.109Z,2.76
2023-03-05T06:11:51.307Z,2.73
2023-03-05T06:14:18.657Z,2.49
2023-03-05T06:16:45.739Z,2.48
2023-03-05T06:19:13.886Z,2.82
2023-03-05T06:21:41.336Z,3.11
2023-03-05T06:24:08.603Z,3.18
2023-03-05T06:26:36.154Z,3.47
2023-03-05T06:29:04.429Z,3.58
2023-03-05T06:31:31.547Z,3.62
2023-03-05T06:34:03.297Z,3.71
2023-03-05T06:36:31.060Z,3.51
2023-03-05T06:38:59.044Z,3.64
2023-03-05T06:41:31.284Z,3.63
2023-03-05T06:44:02.432Z,3.92
2023-03-05T06:46:35.677Z,4.18
2023-03-05T06:49:04.445Z,4.25
2023-03-05T06:51:35.371Z,4.33
2023-03-05T06:54:12.343Z,4.29
2023-03-05T06:56:42.612Z,4.28
2023-03-05T06:59:11.301Z,4.29
2023-03-05T07:01:38.756Z,4.64
2023-03-05T07:04:10.351Z,4.63
2023-03-05T07:06:39.560Z,4.87
2023-03-05T07:14:58.436Z,5.43
2023-03-05T07:26:13.837Z,6.74
2023-03-05T07:31:36.294Z,8.49
2023-03-05T07:34:05.857Z,8.45
2023-03-05T07:36:35.068Z,8.00
2023-03-05T07:39:02.828Z,7.74
2023-03-05T07:41:29.956Z,7.42
2023-03-05T07:43:57.074Z,7.17
2023-03-05T07:46:28.936Z,6.87
2023-03-05T07:48:56.504Z,6.78
2023-03-05T07:51:26.863Z,6.80
2023-03-05T07:53:57.490Z,6.38
2023-03-05T07:56:35.586Z,6.03
2023-03-05T07:59:07.208Z,5.86
2023-03-05T08:01:35.335Z,5.72
2023-03-05T08:04:03.747Z,5.52
2023-03-05T08:06:31.186Z,5.28
2023-03-05T08:08:59.284Z,5.20
2023-03-05T08:11:28.559Z,5.12
2023-03-05T08:13:58.143Z,5.13
2023-03-05T08:16:26.466Z,4.89
2023-03-05T08:18:58.380Z,4.83
2023-03-05T08:21:36.694Z,4.70
2023-03-05T08:24:08.052Z,4.51
2023-03-05T08:26:40.419Z,4.75
2023-03-05T08:29:09.333Z,4.64
2023-03-05T08:31:37.582Z,4.41
2023-03-05T08:34:05.807Z,4.41
2023-03-05T08:36:33.369Z,4.54
2023-03-05T08:39:00.559Z,4.54
2023-03-05T08:41:28.358Z,4.33
2023-03-05T08:43:55.786Z,4.15
2023-03-05T08:46:23.046Z,4.23
2023-03-05T08:48:50.290Z,4.20
2023-03-05T08:51:21.217Z,4.00
2023-03-05T08:53:48.546Z,3.99
2023-03-05T08:56:16.063Z,3.99
2023-03-05T08:58:44.250Z,3.98
2023-03-05T09:01:12.009Z,3.90
2023-03-05T09:03:40.213Z,3.82
2023-03-05T09:06:10.295Z,3.92
2023-03-05T09:08:37.439Z,3.84
2023-03-05T09:11:08.194Z,3.81
2023-03-05T09:13:35.501Z,3.97
2023-03-05T09:16:13.454Z,3.94
2023-03-05T09:18:41.150Z,4.02
2023-03-05T09:21:11.813Z,4.11
2023-03-05T09:23:39.879Z,4.10
2023-03-05T09:26:09.838Z,4.01
2023-03-05T09:28:36.949Z,4.16
2023-03-05T09:31:08.186Z,4.20
2023-03-05T09:33:36.878Z,3.95
2023-03-05T09:36:06.234Z,4.06
2023-03-05T09:38:33.327Z,4.01
2023-03-05T09:41:07.745Z,4.01
2023-03-05T09:43:58.866Z,4.17
2023-03-05T09:47:05.944Z,4.33
2023-03-05T09:49:54.446Z,4.27
2023-03-05T09:52:32.292Z,4.18
2023-03-05T09:54:59.404Z,4.30
2023-03-05T09:57:39.245Z,4.28
2023-03-05T10:00:41.424Z,4.34
2023-03-05T10:03:44.249Z,4.44
2023-03-05T10:06:36.764Z,4.54
2023-03-05T10:09:30.689Z,4.33
2023-03-05T10:12:05.881Z,4.31
2023-03-05T10:14:36.723Z,4.29
2023-03-05T10:17:31.143Z,4.47
2023-03-05T10:20:31.780Z,4.55
2023-03-05T10:23:29.663Z,4.50
2023-03-05T10:26:35.203Z,4.48
2023-03-05T10:29:23.312Z,4.34
2023-03-05T10:32:26.446Z,4.34
2023-03-05T10:35:03.611Z,4.35
2023-03-05T10:38:04.418Z,4.29
2023-03-05T10:40:52.845Z,4.26
2023-03-05T10:43:25.706Z,4.38
2023-03-05T10:45:55.381Z,4.31
2023-03-05T10:48:59.844Z,4.32
2023-03-05T10:51:44.484Z,4.18
2023-03-05T10:54:34.433Z,4.27
2023-03-05T10:57:22.878Z,4.38
2023-03-05T11:03:08.947Z,4.17
2023-03-05T11:05:39.173Z,4.17
2023-03-05T11:08:24.730Z,4.17
2023-03-05T11:11:16.362Z,4.12
2023-03-05T11:14:00.752Z,4.21
2023-03-05T11:16:33.879Z,4.14
2023-03-05T11:19:15.807Z,4.06
2023-03-05T11:21:44.645Z,4.02
2023-03-05T11:24:19.576Z,4.10
2023-03-05T11:26:53.292Z,3.94
2023-03-05T11:29:28.619Z,4.21
2023-03-05T11:31:56.201Z,4.17
2023-03-05T11:34:36.050Z,4.20
2023-03-05T11:37:06.524Z,4.08
2023-03-05T11:39:38.364Z,4.32
2023-03-05T11:42:25.283Z,4.10
2023-03-05T11:44:55.994Z,4.10
2023-03-05T11:47:32.013Z,4.05
2023-03-05T11:50:11.425Z,4.10
2023-03-05T11:52:53.139Z,4.07
2023-03-05T11:55:33.140Z,4.13
2023-03-05T11:58:27.712Z,4.14
2023-03-05T12:00:55.865Z,4.31
2023-03-05T12:03:33.964Z,4.20
2023-03-05T12:06:34.327Z,3.96
2023-03-05T12:09:09.890Z,3.80
2023-03-05T12:11:37.449Z,3.80
2023-03-05T12:14:15.110Z,3.73
2023-03-05T12:16:58.974Z,3.90
2023-03-05T12:20:05.029Z,3.73
2023-03-05T12:22:40.953Z,3.62
2023-03-05T12:25:32.886Z,3.62
2023-03-05T12:28:01.000Z,3.58
2023-03-05T12:30:37.103Z,3.58
2023-03-05T12:33:08.148Z,3.63
2023-03-05T12:35:41.010Z,3.62
2023-03-05T12:38:33.696Z,3.67
2023-03-05T12:41:38.504Z,3.72
2023-03-05T12:44:05.509Z,3.84
2023-03-05T12:46:36.288Z,3.68
2023-03-05T12:49:18.732Z,3.67
2023-03-05T12:51:51.599Z,3.72
2023-03-05T12:54:39.810Z,3.83
2023-03-05T12:57:26.513Z,3.92
2023-03-05T13:00:27.269Z,3.78
2023-03-05T13:03:02.075Z,3.69
2023-03-05T13:05:36.560Z,3.66
2023-03-05T13:08:24.857Z,3.68
2023-03-05T13:11:04.231Z,3.68
2023-03-05T13:13:37.348Z,3.76
2023-03-05T13:16:05.467Z,3.59
2023-03-05T13:18:34.360Z,3.65
2023-03-05T13:21:08.256Z,3.56
2023-03-05T13:23:36.105Z,3.63
2023-03-05T13:26:15.403Z,3.69
2023-03-05T13:28:45.172Z,3.58
2023-03-05T13:31:23.120Z,3.58
2023-03-05T13:33:57.553Z,3.57
2023-03-05T13:36:27.940Z,3.66
2023-03-05T13:38:55.403Z,3.66
2023-03-05T13:41:29.112Z,3.62
2023-03-05T13:44:00.740Z,3.60
2023-03-05T13:46:32.940Z,3.56
2023-03-05T13:49:27.854Z,3.73
2023-03-05T13:51:57.842Z,3.56
2023-03-05T13:54:27.429Z,3.66
2023-03-05T13:57:07.778Z,3.63
2023-03-05T13:59:39.205Z,3.81
2023-03-05T14:02:21.073Z,3.55
2023-03-05T14:04:48.585Z,3.54
2023-03-05T14:07:41.587Z,3.63
2023-03-05T14:10:36.237Z,3.67
2023-03-05T14:13:14.694Z,3.66
2023-03-05T14:15:41.785Z,3.54
2023-03-05T14:18:11.826Z,3.62
2023-03-05T14:21:02.020Z,3.74
2023-03-05T14:23:37.360Z,3.66
2023-03-05T14:26:22.985Z,3.88
2023-03-05T14:29:17.706Z,3.77
2023-03-05T14:32:25.190Z,3.73
2023-03-05T14:34:59.630Z,3.75
2023-03-05T14:37:42.165Z,3.77
2023-03-05T14:40:14.825Z,3.59
2023-03-05T14:42:41.812Z,3.67
2023-03-05T14:45:19.007Z,3.67
2023-03-05T14:47:46.462Z,3.72
2023-03-05T14:50:23.547Z,3.61
2023-03-05T14:52:56.192Z,3.60
2023-03-05T14:55:27.034Z,3.63
2023-03-05T14:58:11.160Z,3.59
2023-03-05T15:00:38.193Z,3.58
2023-03-05T15:03:05.526Z,3.61
2023-03-05T15:05:33.152Z,3.59
2023-03-05T15:08:00.717Z,3.50
2023-03-05T15:10:28.055Z,3.41
2023-03-05T15:12:55.070Z,3.43
2023-03-05T15:15:25.234Z,3.47
2023-03-05T15:17:54.732Z,3.44
2023-03-05T15:20:27.942Z,3.44
2023-03-05T15:22:55.649Z,3.41
2023-03-05T15:25:26.733Z,3.35
2023-03-05T15:27:53.801Z,3.31
2023-03-05T15:30:26.771Z,3.20
2023-03-05T15:32:56.141Z,3.43
2023-03-05T15:35:25.094Z,3.33
2023-03-05T15:37:53.178Z,3.37
2023-03-05T15:40:22.244Z,3.45
2023-03-05T15:42:49.727Z,3.28
2023-03-05T15:45:17.168Z,3.22
2023-03-05T15:47:44.267Z,3.17
2023-03-05T15:50:12.734Z,3.15
2023-03-05T15:52:39.919Z,3.05
2023-03-05T15:55:08.187Z,2.98
2023-03-05T15:57:38.663Z,2.95
2023-03-05T16:00:08.151Z,3.00
2023-03-05T16:02:35.407Z,2.94
2023-03-05T16:05:02.876Z,2.86
2023-03-05T16:07:32.814Z,2.89
2023-03-05T16:10:00.270Z,2.87
2023-03-05T16:12:40.712Z,2.75
2023-03-05T16:15:11.687Z,2.85
2023-03-05T16:17:42.157Z,2.77
2023-03-05T16:20:11.998Z,2.66
2023-03-05T16:22:39.406Z,2.66
2023-03-05T16:25:07.027Z,2.71
2023-03-05T16:27:34.468Z,2.62
2023-03-05T16:30:01.939Z,2.59
2023-03-05T16:32:29.145Z,2.65
2023-03-05T16:34:58.173Z,2.66
2023-03-05T16:37:25.783Z,2.55
2023-03-05T16:39:52.868Z,2.50
2023-03-05T16:42:19.975Z,2.53
2023-03-05T16:44:47.537Z,2.51
2023-03-05T16:47:14.645Z,2.52
2023-03-05T16:49:42.079Z,2.42
2023-03-05T16:52:18.840Z,2.49
2023-03-05T16:54:47.511Z,2.45
2023-03-05T16:57:15.522Z,2.35
2023-03-05T16:59:43.846Z,2.32
2023-03-05T17:02:13.276Z,2.40
2023-03-05T17:04:40.460Z,2.32
2023-03-05T17:07:08.170Z,2.28
2023-03-05T17:09:38.616Z,2.28
2023-03-05T17:12:06.016Z,2.22
2023-03-05T17:14:33.454Z,2.18
2023-03-05T17:17:01.546Z,2.17
2023-03-05T17:19:28.738Z,2.13
2023-03-05T17:21:55.953Z,2.07
2023-03-05T17:24:23.486Z,2.04
2023-03-05T17:26:50.702Z,2.07
2023-03-05T17:29:19.318Z,1.96
2023-03-05T17:31:47.026Z,1.98
2023-03-05T17:34:14.742Z,1.90
2023-03-05T17:36:41.892Z,1.85
2023-03-05T17:39:09.158Z,1.81
2023-03-05T17:41:36.521Z,1.76
2023-03-05T17:44:04.291Z,1.69
2023-03-05T17:46:31.451Z,1.65
2023-03-05T17:48:58.497Z,1.66
2023-03-05T17:51:25.545Z,1.66
2023-03-05T17:53:52.720Z,1.64
2023-03-05T17:56:23.377Z,1.60
2023-03-05T17:58:52.367Z,1.51
2023-03-05T18:01:32.411Z,1.47
2023-03-05T18:04:00.032Z,1.46
2023-03-05T18:06:27.782Z,1.36
2023-03-05T18:08:54.811Z,1.37
2023-03-05T18:11:21.946Z,1.35
2023-03-05T18:13:49.178Z,1.41
2023-03-05T18:16:17.162Z,1.37
2023-03-05T18:18:45.554Z,1.34
2023-03-05T18:21:12.880Z,1.25
2023-03-05T18:23:39.964Z,1.24
2023-03-05T18:26:07.258Z,1.19
2023-03-05T18:28:34.976Z,1.07
2023-03-05T18:31:02.373Z,1.07
2023-03-05T18:33:29.541Z,1.13
2023-03-05T18:35:58.017Z,1.16
2023-03-05T18:38:28.274Z,1.08
2023-03-05T18:40:57.036Z,1.04
2023-03-05T18:43:25.110Z,1.03
2023-03-05T18:45:55.477Z,0.93
2023-03-05T18:48:23.346Z,0.91
2023-03-05T18:50:53.234Z,1.00
2023-03-05T18:53:22.158Z,0.94
2023-03-05T18:55:51.292Z,0.89
2023-03-05T18:58:18.968Z,0.86
2023-03-05T19:00:47.649Z,0.85
2023-03-05T19:03:19.001Z,0.80
2023-03-05T19:05:47.422Z,0.83
2023-03-05T19:08:14.560Z,0.85
2023-03-05T19:10:41.600Z,0.77
2023-03-05T19:13:29.178Z,0.78
2023-03-05T19:15:56.359Z,0.74
2023-03-05T19:18:25.295Z,0.67
2023-03-05T19:20:56.118Z,0.66
2023-03-05T19:23:23.419Z,0.64
2023-03-05T19:25:50.560Z,0.65
2023-03-05T19:28:17.720Z,0.64
2023-03-05T19:30:47.516Z,0.64
2023-03-05T19:33:14.671Z,0.64
2023-03-05T19:35:42.566Z,0.67
2023-03-05T19:38:09.761Z,0.64
2023-03-05T19:40:36.799Z,0.66
2023-03-05T19:43:05.684Z,0.62
2023-03-05T19:45:33.896Z,0.61
2023-03-05T19:48:02.248Z,0.59
2023-03-05T19:50:29.575Z,0.55
2023-03-05T19:52:56.648Z,0.54
2023-03-05T19:55:23.752Z,0.62
2023-03-05T19:57:50.793Z,0.68
2023-03-05T20:00:18.777Z,0.72
2023-03-05T20:02:45.972Z,0.64
2023-03-05T20:05:13.015Z,0.68
2023-03-05T20:07:40.212Z,0.60
2023-03-05T20:10:07.796Z,0.53
2023-03-05T20:12:36.450Z,0.57
2023-03-05T20:15:03.802Z,0.53
2023-03-05T20:17:30.944Z,0.53
2023-03-05T20:20:00.190Z,0.42
2023-03-05T20:22:27.395Z,0.39
2023-03-05T20:24:54.473Z,0.38
2023-03-05T20:27:21.577Z,0.36
2023-03-05T20:29:48.717Z,0.37
2023-03-05T20:32:15.792Z,0.35
2023-03-05T20:34:43.089Z,0.34
2023-03-05T20:37:10.494Z,0.36
2023-03-05T20:39:37.744Z,0.20
2023-03-05T20:42:05.056Z,0.12
2023-03-05T20:44:32.273Z,0.17
2023-03-05T20:47:22.660Z,0.13
2023-03-05T20:49:53.792Z,0.12
2023-03-05T20:52:20.943Z,0.12
2023-03-05T20:54:48.303Z,0.12
2023-03-05T20:57:15.433Z,0.09
2023-03-05T20:59:42.530Z,0.03
2023-03-05T21:02:10.474Z,-0.09
2023-03-05T21:04:37.579Z,-0.01
2023-03-05T21:07:04.794Z,-0.07
2023-03-05T21:09:31.963Z,-0.08
2023-03-05T21:11:59.309Z,-0.01
2023-03-05T21:14:26.406Z,-0.14
2023-03-05T21:16:53.515Z,-0.13
2023-03-05T21:19:20.716Z,-0.17
2023-03-05T21:21:47.983Z,-0.14
2023-03-05T21:24:17.144Z,-0.13
2023-03-05T21:26:44.834Z,-0.16
2023-03-05T21:29:11.984Z,-0.25
2023-03-05T21:31:39.170Z,-0.23
2023-03-05T21:34:06.276Z,-0.20
2023-03-05T21:36:33.435Z,-0.21
2023-03-05T21:39:00.846Z,-0.24
2023-03-05T21:41:28.625Z,-0.25
2023-03-05T21:43:55.700Z,-0.30
2023-03-05T21:46:22.736Z,-0.36
2023-03-05T21:48:49.933Z,-0.36
2023-03-05T21:51:17.078Z,-0.33
2023-03-05T21:53:44.199Z,-0.36
2023-03-05T21:56:18.971Z,-0.36
2023-03-05T21:58:46.786Z,-0.38
2023-03-05T22:01:16.334Z,-0.30
2023-03-05T22:03:43.497Z,-0.34
2023-03-05T22:06:15.584Z,-0.36
2023-03-05T22:08:42.896Z,-0.35
2023-03-05T22:11:16.332Z,-0.34
2023-03-05T22:13:43.861Z,-0.44
2023-03-05T22:16:11.962Z,-0.43
2023-03-05T22:18:39.187Z,-0.29
2023-03-05T23:03:34.045Z,-0.61
2023-03-05T23:11:36.600Z,-0.70
2023-03-05T23:14:03.700Z,-0.68
2023-03-05T23:39:49.073Z,-0.93
2023-03-05T23:42:16.164Z,-0.98
